Newnan, GA

1:43 AM EST on February 20, 2017 (GMT -0500)
KM4UCV | | Change Station

Elev 938 ft 33.37 °N, 84.82 °W | Updated 15 seconds ago

Clear
Clear
44.6 °F
Feels Like 45 °F
N
1.1
Wind Variable Wind from NE

Today
High -- | Low -- °F
--% Chance of Precip.
Yesterday
High -- | Low -- °F
Precip. -- in
Pressure 30.16 in
Visibility 9.0 miles
Clouds Clear
Windchill 45 °F
Dew Point 44 °F
Humidity 99%
Rainfall 0.00 in
Snow Depth Not available.
7:17 AM 6:28 PM
Last Quarter, 36% visible
METAR KFFC 200553Z AUTO 00000KT 9SM CLR 07/06 A3016 RMK AO2 SLP212 T00670056 10178 20067 51008
Pressure 30.16 in
Visibility 9.0 miles
Clouds Clear
Windchill 45 °F
Dew Point 44 °F
Humidity 99%
Rainfall 0.00 in
Snow Depth Not available.
7:17 AM 6:28 PM
Last Quarter, 36% visible
METAR KFFC 200553Z AUTO 00000KT 9SM CLR 07/06 A3016 RMK AO2 SLP212 T00670056 10178 20067 51008

Get Your Daily Forecast Email!

Thanks for signing up!

Be on the lookout for a verification email in your inbox.

You'll start receiving the daily forecast at 8 AM.

×

10-Day Weather Forecast

Almanac

Astronomy

Feb. 20, 2017 Rise Set
Actual Time
Civil Twilight
Nautical Twilight
Astronomical Twilight
Moon
Length of Visible Light
Length of Day
Tomorrow will be .
, % of the Moon is Illuminated

Today's Extremes

State Highs State Lows

Community

WunderPhotos

Upload Photos

1,962,540 photos uploaded!

WunderBlog® & News

Nearby

Air Quality

  Air Quality AQ Index Pollutant
Not available.

Snow Depth

Station Depth Elevation

Earthquake Activity

City Distance Mag. Time & Date
Minimum magnitude displayed is 2.5.

Coastal Water Temperatures

Place Temperature

Stations

Nearby Weather Stations

Station Location Temp. Windchill Dew Point Humidity Wind Precip. Elev Updated Type
                   

Watches & Warnings

There are currently no watches in effect.